createdAt,value
2019-04-22T00:01:50.394Z,41.44
2019-04-22T00:04:32.200Z,41.38
2019-04-22T00:07:15.902Z,41.61
2019-04-22T00:09:53.453Z,41.66
2019-04-22T00:14:46.563Z,42.07
2019-04-22T00:17:30.665Z,41.77
2019-04-22T00:19:57.582Z,41.90
2019-04-22T00:22:27.404Z,41.83
2019-04-22T00:25:05.551Z,41.60
2019-04-22T00:27:35.803Z,41.52
2019-04-22T00:30:07.274Z,41.53
2019-04-22T00:32:36.567Z,41.74
2019-04-22T00:35:07.103Z,41.99
2019-04-22T00:37:43.718Z,42.19
2019-04-22T00:40:17.734Z,42.54
2019-04-22T00:42:46.947Z,42.65
2019-04-22T00:45:19.413Z,42.67
2019-04-22T00:47:43.833Z,42.89
2019-04-22T00:52:59.909Z,42.99
2019-04-22T00:55:24.781Z,42.67
2019-04-22T00:57:56.332Z,42.88
2019-04-22T01:00:27.785Z,42.64
2019-04-22T01:03:02.715Z,43.13
2019-04-22T01:05:32.672Z,43.19
2019-04-22T01:08:09.604Z,44.04
2019-04-22T01:10:32.398Z,44.18
2019-04-22T01:13:04.704Z,44.33
2019-04-22T01:15:33.906Z,44.28
2019-04-22T01:18:08.264Z,44.22
2019-04-22T01:23:03.838Z,44.81
2019-04-22T01:25:39.233Z,44.92
2019-04-22T01:28:00.914Z,44.84
2019-04-22T01:30:28.776Z,45.22
2019-04-22T01:32:53.906Z,45.19
2019-04-22T01:35:35.838Z,45.53
2019-04-22T01:38:07.911Z,46.23
2019-04-22T01:40:58.615Z,46.22
2019-04-22T01:43:25.014Z,46.25
2019-04-22T01:45:54.479Z,46.40
2019-04-22T01:48:26.852Z,46.25
2019-04-22T01:50:54.783Z,46.71
2019-04-22T01:53:27.133Z,46.66
2019-04-22T01:55:59.053Z,46.63
2019-04-22T01:58:23.454Z,46.99
2019-04-22T02:01:00.989Z,46.93
2019-04-22T02:03:33.323Z,46.78
2019-04-22T02:06:12.160Z,47.04
2019-04-22T02:08:45.399Z,47.43
2019-04-22T02:11:09.355Z,47.25
2019-04-22T02:13:36.644Z,47.32
2019-04-22T02:16:12.547Z,46.96
2019-04-22T02:18:50.710Z,47.01
2019-04-22T02:21:09.319Z,46.76
2019-04-22T02:23:47.085Z,46.94
2019-04-22T02:26:31.523Z,46.78
2019-04-22T02:28:55.976Z,46.93
2019-04-22T02:31:25.852Z,47.00
2019-04-22T02:51:30.104Z,48.12
2019-04-22T02:56:31.488Z,48.33
2019-04-22T03:01:36.549Z,48.51
2019-04-22T03:09:12.571Z,48.94
2019-04-22T03:11:47.653Z,49.39
2019-04-22T03:14:22.661Z,50.05
2019-04-22T03:21:46.944Z,51.10
2019-04-22T03:24:23.596Z,51.26
2019-04-22T03:27:00.691Z,51.60
2019-04-22T03:29:44.586Z,51.57
2019-04-22T03:37:32.375Z,52.78
2019-04-22T03:40:03.979Z,52.80
2019-04-22T03:42:09.780Z,52.83
2019-04-22T03:44:54.254Z,52.85
2019-04-22T03:47:33.593Z,52.43
2019-04-22T03:49:56.028Z,52.62
2019-04-22T03:57:48.939Z,52.60
2019-04-22T04:04:49.524Z,52.94
2019-04-22T04:07:40.558Z,53.44
2019-04-22T04:12:28.481Z,53.60
2019-04-22T04:17:36.895Z,53.52
2019-04-22T04:27:53.617Z,53.47
2019-04-22T04:35:23.899Z,53.51
2019-04-22T04:37:52.116Z,54.09
2019-04-22T04:40:25.072Z,54.67
2019-04-22T04:50:22.695Z,53.79
2019-04-22T04:56:29.681Z,54.08
2019-04-22T04:58:10.021Z,54.04
2019-04-22T05:02:58.386Z,54.26
2019-04-22T05:05:45.058Z,54.70
2019-04-22T05:10:44.879Z,55.33
2019-04-22T05:13:01.139Z,55.22
2019-04-22T05:20:42.966Z,56.04
2019-04-22T05:23:06.963Z,55.76
2019-04-22T05:25:53.505Z,55.66
2019-04-22T05:28:06.820Z,55.52
2019-04-22T05:30:58.979Z,55.62
2019-04-22T05:33:10.167Z,55.54
2019-04-22T05:35:37.858Z,55.11
2019-04-22T05:40:36.003Z,54.59
2019-04-22T05:43:16.348Z,55.12
2019-04-22T05:45:47.341Z,54.88
2019-04-22T05:48:23.147Z,55.53
2019-04-22T05:50:47.345Z,55.12
2019-04-22T05:53:14.950Z,53.93
2019-04-22T05:55:53.846Z,53.58
2019-04-22T05:58:22.517Z,53.21
2019-04-22T06:03:42.471Z,52.15
2019-04-22T06:06:12.017Z,51.52
2019-04-22T06:08:43.995Z,50.32
2019-04-22T06:11:17.149Z,50.68
2019-04-22T06:13:41.722Z,50.52
2019-04-22T06:16:18.229Z,50.28
2019-04-22T06:18:46.993Z,50.12
2019-04-22T06:21:22.310Z,49.74
2019-04-22T06:24:01.891Z,49.46
2019-04-22T06:26:31.194Z,49.58
2019-04-22T06:28:54.675Z,49.07
2019-04-22T06:31:28.152Z,48.52
2019-04-22T06:34:07.234Z,49.01
2019-04-22T06:36:29.532Z,48.42
2019-04-22T06:38:55.939Z,47.99
2019-04-22T06:41:33.271Z,48.24
2019-04-22T06:44:04.760Z,47.98
2019-04-22T06:46:37.835Z,48.48
2019-04-22T06:49:03.015Z,48.46
2019-04-22T06:51:32.486Z,47.95
2019-04-22T06:54:03.402Z,48.27
2019-04-22T06:56:41.309Z,48.48
2019-04-22T06:59:09.755Z,48.29
2019-04-22T07:01:55.059Z,48.39
2019-04-22T07:04:23.229Z,48.20
2019-04-22T07:06:44.807Z,48.08
2019-04-22T07:11:48.296Z,49.35
2019-04-22T07:14:09.295Z,49.28
2019-04-22T07:16:43.574Z,50.08
2019-04-22T07:19:20.656Z,49.13
2019-04-22T07:21:53.557Z,49.00
2019-04-22T07:26:50.792Z,49.32
2019-04-22T07:29:41.655Z,48.39
2019-04-22T07:31:56.377Z,47.96
2019-04-22T07:34:33.369Z,49.33
2019-04-22T07:37:10.988Z,48.69
2019-04-22T07:39:30.824Z,49.20
2019-04-22T07:42:10.721Z,49.46
2019-04-22T07:44:52.064Z,48.42
2019-04-22T07:47:15.205Z,49.35
2019-04-22T07:49:39.115Z,48.70
2019-04-22T07:52:09.755Z,48.06
2019-04-22T07:54:41.689Z,47.86
2019-04-22T08:00:05.554Z,48.50
2019-04-22T08:02:16.076Z,47.58
2019-04-22T08:05:03.720Z,47.12
2019-04-22T08:07:22.546Z,47.37
2019-04-22T08:12:19.128Z,46.59
2019-04-22T08:14:52.142Z,47.83
2019-04-22T08:17:50.853Z,47.42
2019-04-22T08:19:56.058Z,47.60
2019-04-22T08:22:21.394Z,47.29
2019-04-22T08:24:54.017Z,47.06
2019-04-22T08:27:22.571Z,46.28
2019-04-22T08:32:39.171Z,46.17
2019-04-22T08:35:11.262Z,46.79
2019-04-22T08:40:15.467Z,45.64
2019-04-22T08:42:53.365Z,45.86
2019-04-22T08:45:28.592Z,45.43
2019-04-22T08:47:41.587Z,44.45
2019-04-22T08:52:40.603Z,44.43
2019-04-22T08:55:20.841Z,43.22
2019-04-22T08:58:07.217Z,43.95
2019-04-22T09:00:17.371Z,44.15
2019-04-22T09:02:52.129Z,43.64
2019-04-22T09:05:37.115Z,42.43
2019-04-22T09:08:04.972Z,42.43
2019-04-22T09:10:24.388Z,42.13
2019-04-22T09:13:02.493Z,42.07
2019-04-22T09:29:30.393Z,40.32
2019-04-22T09:32:03.560Z,40.37
2019-04-22T09:34:28.255Z,40.08
2019-04-22T09:37:05.987Z,39.17
2019-04-22T09:42:21.930Z,40.14
2019-04-22T09:44:36.570Z,39.65
2019-04-22T09:47:06.210Z,38.24
2019-04-22T09:49:44.546Z,37.56
2019-04-22T09:54:49.567Z,37.70
2019-04-22T09:57:12.007Z,37.83
2019-04-22T09:59:43.594Z,37.98
2019-04-22T10:04:48.266Z,37.03
2019-04-22T10:07:15.878Z,36.67
2019-04-22T10:12:19.251Z,35.63
2019-04-22T10:14:49.485Z,35.69
2019-04-22T10:17:23.771Z,35.66
2019-04-22T10:19:57.874Z,34.94
2019-04-22T10:22:27.979Z,35.12
2019-04-22T10:24:56.890Z,34.87
2019-04-22T10:27:26.141Z,35.04
2019-04-22T10:30:08.874Z,34.85
2019-04-22T10:32:27.935Z,34.43
2019-04-22T10:34:48.029Z,33.41
2019-04-22T10:37:17.017Z,33.99
2019-04-22T10:39:52.967Z,33.76
2019-04-22T10:42:17.398Z,35.05
2019-04-22T10:44:48.483Z,33.78
2019-04-22T10:47:20.070Z,33.56
2019-04-22T10:49:49.618Z,33.12
2019-04-22T10:52:19.143Z,33.12
2019-04-22T10:54:49.494Z,32.93
2019-04-22T10:57:20.129Z,32.14
2019-04-22T10:59:50.384Z,32.04
2019-04-22T11:02:21.490Z,33.63
2019-04-22T11:04:52.403Z,33.83
2019-04-22T11:07:31.090Z,32.42
2019-04-22T11:10:02.399Z,32.12
2019-04-22T11:12:28.292Z,32.45
2019-04-22T11:14:55.963Z,31.32
2019-04-22T11:17:26.451Z,31.65
2019-04-22T11:19:57.459Z,30.85
2019-04-22T11:22:31.328Z,30.08
2019-04-22T11:24:59.814Z,30.65
2019-04-22T11:27:30.871Z,30.71
2019-04-22T11:30:01.841Z,30.56
2019-04-22T11:32:32.766Z,31.24
2019-04-22T11:35:03.664Z,31.03
2019-04-22T11:37:34.782Z,31.04
2019-04-22T11:40:15.768Z,31.00
2019-04-22T11:42:36.394Z,30.80
2019-04-22T11:45:06.297Z,31.10
2019-04-22T11:47:37.251Z,30.28
2019-04-22T11:50:08.078Z,29.87
2019-04-22T11:52:37.699Z,30.34
2019-04-22T11:55:08.689Z,29.81
2019-04-22T11:57:39.217Z,30.16
2019-04-22T12:00:10.649Z,30.29
2019-04-22T12:02:41.025Z,29.70
2019-04-22T12:05:12.279Z,30.26
2019-04-22T12:07:42.910Z,28.58
2019-04-22T12:10:22.830Z,28.20
2019-04-22T12:12:47.756Z,28.64
2019-04-22T12:15:16.909Z,28.67
2019-04-22T12:17:46.553Z,28.53
2019-04-22T12:20:18.409Z,28.42
2019-04-22T12:22:49.164Z,27.36
2019-04-22T12:25:31.864Z,26.58
2019-04-22T12:27:52.832Z,26.96
2019-04-22T12:30:23.638Z,26.68
2019-04-22T12:32:54.554Z,26.97
2019-04-22T12:35:26.289Z,28.68
2019-04-22T12:38:01.521Z,28.88
2019-04-22T12:40:39.518Z,28.12
2019-04-22T12:42:59.474Z,27.91
2019-04-22T12:45:30.080Z,28.27
2019-04-22T12:48:00.066Z,28.98
2019-04-22T12:50:33.860Z,29.16
2019-04-22T12:53:05.226Z,28.22
2019-04-22T12:55:32.422Z,27.58
2019-04-22T12:58:02.838Z,28.39
2019-04-22T13:00:34.331Z,27.14
2019-04-22T13:03:05.226Z,26.98
2019-04-22T13:05:35.321Z,26.55
2019-04-22T13:08:05.661Z,26.43
2019-04-22T13:10:48.679Z,26.89
2019-04-22T13:13:07.205Z,26.29
2019-04-22T13:15:37.043Z,25.75
2019-04-22T13:18:16.940Z,25.39
2019-04-22T13:20:38.672Z,25.49
2019-04-22T13:23:09.501Z,25.58
2019-04-22T13:25:40.885Z,25.81
2019-04-22T13:28:13.193Z,26.33
2019-04-22T13:30:44.341Z,25.54
2019-04-22T13:33:14.854Z,26.23
2019-04-22T13:35:45.730Z,25.50
2019-04-22T13:38:17.157Z,25.36
2019-04-22T13:41:00.648Z,26.02
2019-04-22T13:43:19.156Z,25.47
2019-04-22T13:45:49.866Z,25.72
2019-04-22T13:48:38.198Z,25.64
2019-04-22T13:51:24.077Z,24.98
2019-04-22T13:54:13.693Z,25.68
2019-04-22T13:56:15.571Z,25.39
2019-04-22T13:58:40.974Z,25.15
2019-04-22T14:01:00.706Z,25.76
2019-04-22T14:03:52.295Z,24.61
2019-04-22T14:06:22.683Z,25.13
2019-04-22T14:08:53.426Z,25.07
2019-04-22T14:11:34.556Z,24.66
2019-04-22T14:13:54.284Z,25.67
2019-04-22T14:16:24.818Z,25.79
2019-04-22T14:18:55.914Z,25.00
2019-04-22T14:21:27.021Z,25.70
2019-04-22T14:23:56.602Z,25.05
2019-04-22T14:26:28.387Z,24.53
2019-04-22T14:28:57.608Z,24.56
2019-04-22T14:31:28.505Z,24.70
2019-04-22T14:34:01.820Z,24.65
2019-04-22T14:36:29.795Z,24.89
2019-04-22T14:38:59.738Z,25.03
2019-04-22T14:41:42.826Z,25.01
2019-04-22T14:45:06.616Z,25.71
2019-04-22T14:47:05.731Z,26.20
2019-04-22T14:49:31.528Z,25.45
2019-04-22T14:52:02.291Z,24.85
2019-04-22T14:54:24.254Z,24.44
2019-04-22T14:56:38.290Z,22.96
2019-04-22T14:59:09.188Z,22.77
2019-04-22T15:01:41.430Z,22.56
2019-04-22T15:04:10.976Z,23.00
2019-04-22T15:06:43.467Z,22.63
2019-04-22T15:09:12.214Z,22.74
2019-04-22T15:11:54.820Z,22.04
2019-04-22T15:14:13.013Z,22.73
2019-04-22T15:17:11.084Z,23.12
2019-04-22T15:19:49.730Z,23.97
2019-04-22T15:22:20.797Z,23.32
2019-04-22T15:24:50.488Z,22.52
2019-04-22T15:27:20.326Z,22.46
2019-04-22T15:29:51.621Z,22.10
2019-04-22T15:32:21.313Z,21.90
2019-04-22T15:34:51.156Z,21.62
2019-04-22T15:37:22.207Z,21.91
2019-04-22T15:39:53.811Z,23.05
2019-04-22T15:42:28.858Z,23.45
2019-04-22T15:44:55.850Z,24.22
2019-04-22T15:47:26.905Z,23.94
2019-04-22T15:49:58.353Z,23.97
2019-04-22T15:52:31.957Z,23.64
2019-04-22T15:55:00.660Z,23.94
2019-04-22T15:57:30.835Z,23.90
2019-04-22T16:00:14.655Z,23.46
2019-04-22T16:02:31.858Z,23.64
2019-04-22T16:05:02.726Z,24.46
2019-04-22T16:07:33.871Z,25.00
2019-04-22T16:10:05.889Z,24.48
2019-04-22T16:12:45.560Z,24.49
2019-04-22T16:15:09.604Z,25.01
2019-04-22T16:17:38.501Z,24.98
2019-04-22T16:20:09.112Z,25.13
2019-04-22T16:22:57.092Z,24.72
2019-04-22T16:25:45.240Z,23.54
2019-04-22T16:28:15.553Z,22.14
2019-04-22T16:30:45.505Z,21.86
2019-04-22T16:33:15.333Z,21.54
2019-04-22T16:35:45.058Z,21.86
2019-04-22T16:38:15.120Z,22.31
2019-04-22T16:40:45.058Z,22.44
2019-04-22T16:43:14.643Z,22.78
2019-04-22T16:45:45.493Z,22.85
2019-04-22T16:48:16.063Z,22.97
2019-04-22T16:50:48.652Z,23.56
2019-04-22T16:53:16.987Z,23.67
2019-04-22T16:55:46.678Z,23.63
2019-04-22T16:58:18.799Z,24.04
2019-04-22T17:00:49.620Z,23.94
2019-04-22T17:03:38.724Z,23.88
2019-04-22T17:06:25.601Z,23.50
2019-04-22T17:08:55.400Z,23.62
2019-04-22T17:11:25.601Z,24.02
2019-04-22T17:13:55.348Z,23.63
2019-04-22T17:16:26.257Z,23.56
2019-04-22T17:18:56.471Z,23.25
2019-04-22T17:21:26.010Z,23.42
2019-04-22T17:23:55.967Z,23.83
2019-04-22T17:26:26.476Z,23.12
2019-04-22T17:28:57.583Z,23.67
2019-04-22T17:31:28.862Z,24.27
2019-04-22T17:33:58.992Z,24.62
2019-04-22T17:36:29.825Z,25.04
2019-04-22T17:39:14.592Z,25.50
2019-04-22T17:41:53.968Z,25.57
2019-04-22T17:44:41.423Z,26.03
2019-04-22T17:47:04.931Z,26.02
2019-04-22T17:50:08.189Z,25.84
2019-04-22T17:54:50.161Z,26.42
2019-04-22T17:57:23.951Z,26.54
2019-04-22T17:59:50.533Z,26.80
2019-04-22T18:02:24.929Z,27.08
2019-04-22T18:04:46.117Z,26.91
2019-04-22T18:10:24.215Z,27.50
2019-04-22T18:12:38.567Z,27.53
2019-04-22T18:15:04.006Z,27.63
2019-04-22T18:17:35.511Z,27.83
2019-04-22T18:19:58.255Z,28.40
2019-04-22T18:22:29.371Z,28.46
2019-04-22T18:25:04.245Z,28.68
2019-04-22T18:30:03.954Z,29.50
2019-04-22T18:32:42.422Z,29.77
2019-04-22T18:35:11.477Z,29.80
2019-04-22T18:37:43.778Z,30.18
2019-04-22T18:40:15.118Z,30.42
2019-04-22T18:42:53.567Z,30.63
2019-04-22T18:45:35.808Z,30.73
2019-04-22T18:47:43.906Z,31.06
2019-04-22T18:50:30.711Z,31.44
2019-04-22T18:53:20.200Z,31.38
2019-04-22T18:55:41.412Z,31.49
2019-04-22T18:58:09.065Z,31.95
2019-04-22T19:00:34.235Z,31.70
2019-04-22T19:03:13.494Z,32.00
2019-04-22T19:05:55.810Z,32.06
2019-04-22T19:08:28.884Z,32.12
2019-04-22T19:11:04.979Z,32.96
2019-04-22T19:16:17.207Z,32.72
2019-04-22T19:18:33.643Z,32.86
2019-04-22T19:21:07.942Z,33.02
2019-04-22T19:23:31.948Z,32.93
2019-04-22T19:26:08.316Z,33.27
2019-04-22T19:28:41.885Z,32.93
2019-04-22T19:31:13.792Z,32.60
2019-04-22T19:33:44.443Z,31.98
2019-04-22T19:36:14.671Z,31.08
2019-04-22T19:38:31.265Z,31.11
2019-04-22T19:41:23.153Z,30.89
2019-04-22T19:43:46.861Z,31.27
2019-04-22T19:46:16.732Z,31.53
2019-04-22T19:48:50.128Z,31.52
2019-04-22T19:51:23.619Z,31.60
2019-04-22T19:53:51.315Z,31.68
2019-04-22T19:56:17.503Z,31.47
2019-04-22T19:58:47.694Z,31.60
2019-04-22T20:01:44.108Z,32.35
2019-04-22T20:04:47.984Z,32.35
2019-04-22T20:07:08.505Z,32.52
2019-04-22T20:09:47.852Z,32.95
2019-04-22T20:12:18.982Z,32.63
2019-04-22T20:14:48.102Z,32.50
2019-04-22T20:17:24.487Z,32.50
2019-04-22T20:19:55.343Z,32.02
2019-04-22T20:22:17.680Z,32.10
2019-04-22T20:24:43.497Z,32.11
2019-04-22T20:27:28.525Z,32.18
2019-04-22T20:30:02.392Z,32.15
2019-04-22T20:32:26.410Z,32.94
2019-04-22T20:35:03.011Z,32.67
2019-04-22T20:37:35.564Z,32.47
2019-04-22T20:40:02.424Z,32.68
2019-04-22T20:45:11.815Z,33.09
2019-04-22T20:47:30.480Z,32.96
2019-04-22T20:50:05.387Z,32.98
2019-04-22T20:52:50.238Z,32.80
2019-04-22T20:55:07.990Z,33.10
2019-04-22T20:57:50.029Z,33.09
2019-04-22T21:00:11.516Z,33.17
2019-04-22T21:02:38.808Z,33.48
2019-04-22T21:05:03.251Z,33.46
2019-04-22T21:07:47.925Z,33.56
2019-04-22T21:10:17.282Z,33.69
2019-04-22T21:12:38.663Z,33.71
2019-04-22T21:15:29.939Z,33.80
2019-04-22T21:17:53.501Z,33.84
2019-04-22T21:20:33.404Z,33.93
2019-04-22T21:22:58.213Z,33.93
2019-04-22T21:25:20.575Z,34.21
2019-04-22T21:28:08.099Z,34.52
2019-04-22T21:30:31.995Z,34.70
2019-04-22T21:32:58.311Z,34.60
2019-04-22T21:35:48.149Z,34.66
2019-04-22T21:38:08.436Z,34.70
2019-04-22T21:40:38.799Z,34.69
2019-04-22T21:43:12.310Z,35.33
2019-04-22T21:45:31.035Z,35.84
2019-04-22T21:48:20.595Z,35.57
2019-04-22T21:50:50.188Z,35.82
2019-04-22T21:53:22.745Z,36.33
2019-04-22T21:55:58.538Z,36.75
2019-04-22T21:58:24.516Z,36.95
2019-04-22T22:01:14.431Z,36.83
2019-04-22T22:03:38.144Z,37.01
2019-04-22T22:06:04.483Z,37.28
2019-04-22T22:08:45.767Z,37.64
2019-04-22T22:11:13.373Z,37.37
2019-04-22T22:13:48.794Z,37.64
2019-04-22T22:16:12.808Z,37.60
2019-04-22T22:18:52.920Z,37.83
2019-04-22T22:21:42.104Z,37.81
2019-04-22T22:23:55.883Z,37.51
2019-04-22T22:26:15.252Z,37.84
2019-04-22T22:31:28.633Z,38.87
2019-04-22T22:33:58.010Z,38.37
2019-04-22T22:36:26.401Z,38.39
2019-04-22T22:38:56.151Z,38.72
2019-04-22T22:41:10.133Z,38.75
2019-04-22T22:43:45.321Z,38.91
2019-04-22T22:46:24.692Z,38.87
2019-04-22T22:49:05.133Z,38.85
2019-04-22T22:51:39.886Z,39.07
2019-04-22T22:54:06.358Z,39.43
2019-04-22T22:56:42.374Z,39.41
2019-04-22T22:59:08.163Z,39.59
2019-04-22T23:01:39.698Z,40.19
2019-04-22T23:04:21.046Z,39.55
2019-04-22T23:06:48.379Z,39.52
2019-04-22T23:09:15.399Z,40.18
2019-04-22T23:14:23.348Z,40.36
2019-04-22T23:16:37.853Z,40.58
2019-04-22T23:19:02.233Z,40.82
2019-04-22T23:21:39.707Z,40.72
2019-04-22T23:24:37.795Z,40.88
2019-04-22T23:27:19.340Z,41.32
2019-04-22T23:30:06.432Z,41.54
2019-04-22T23:32:38.856Z,42.38
2019-04-22T23:35:22.918Z,42.19
2019-04-22T23:37:52.635Z,42.58
2019-04-22T23:43:00.204Z,42.68
2019-04-22T23:45:33.264Z,42.68
2019-04-22T23:48:00.935Z,42.41
2019-04-22T23:50:38.877Z,42.60
2019-04-22T23:53:42.718Z,42.91
2019-04-22T23:56:01.747Z,43.05
2019-04-22T23:58:47.665Z,43.52
